Time;durP1;ratioP1;P1;durP2;ratioP2;P2;SDS_P1;SDS_P2;PMS_P1;PMS_P2;Temp;Humidity;BMP_temperature;BMP_pressure;BME280_temperature;BME280_humidity;BME280_pressure;Samples;Min_cycle;Max_cycle;Signal;HPM_P1;HPM_P2
2023/09/27 00:00:16;;;;;;;26.90;6.60;;;;;;;14.06;59.67;102067.77;107533;1251;108576;-62
2023/09/27 00:03:05;;;;;;;27.90;6.90;;;;;;;14.01;59.65;102065.66;107608;1254;97902;-62
2023/09/27 00:05:34;;;;;;;23.50;7.00;;;;;;;13.94;60.33;102064.54;107590;1251;97707;-62
2023/09/27 00:08:04;;;;;;;23.90;6.90;;;;;;;13.88;60.21;102065.77;107518;1253;111870;-63
2023/09/27 00:10:33;;;;;;;20.80;6.40;;;;;;;13.82;60.19;102063.61;107570;1253;110006;-61
2023/09/27 00:13:01;;;;;;;21.50;7.10;;;;;;;13.77;60.27;102066.52;107562;1256;106746;-61
2023/09/27 00:15:30;;;;;;;27.90;7.30;;;;;;;13.72;60.28;102063.45;107562;1253;97867;-61
2023/09/27 00:17:58;;;;;;;17.30;6.70;;;;;;;13.73;60.82;102063.77;107596;1253;97721;-62
2023/09/27 00:20:27;;;;;;;25.70;7.50;;;;;;;13.73;60.95;102066.27;107594;1254;111104;-61
2023/09/27 00:22:56;;;;;;;21.50;6.40;;;;;;;13.74;61.36;102065.47;107596;1254;109655;-62
2023/09/27 00:25:24;;;;;;;36.90;6.90;;;;;;;13.74;61.15;102060.97;107618;1253;108298;-61
2023/09/27 00:27:53;;;;;;;14.00;5.50;;;;;;;13.74;61.18;102060.77;107538;1253;97969;-61
2023/09/27 00:30:22;;;;;;;32.40;6.50;;;;;;;13.74;61.42;102063.48;107595;1255;98558;-61
2023/09/27 00:32:50;;;;;;;16.90;6.80;;;;;;;13.75;61.31;102061.79;107603;1251;110396;-62
2023/09/27 00:35:20;;;;;;;18.60;6.40;;;;;;;13.76;61.58;102055.95;107638;1253;109915;-63
2023/09/27 00:37:49;;;;;;;23.90;6.10;;;;;;;13.76;61.87;102057.32;107575;1254;108618;-62
2023/09/27 00:40:21;;;;;;;23.20;6.80;;;;;;;13.79;61.86;102057.35;107553;1253;98341;-61
2023/09/27 00:42:49;;;;;;;23.50;6.80;;;;;;;13.80;61.73;102057.56;107617;1252;98338;-62
2023/09/27 00:45:18;;;;;;;28.30;7.60;;;;;;;13.80;61.65;102057.22;107546;1253;111462;-61
2023/09/27 00:47:50;;;;;;;36.80;12.60;;;;;;;13.80;61.59;102058.50;107553;1251;109722;-62
2023/09/27 00:50:19;;;;;;;24.50;7.50;;;;;;;13.83;61.66;102054.48;107631;1255;107031;-62
2023/09/27 00:52:48;;;;;;;31.30;7.00;;;;;;;13.88;61.68;102057.33;107595;1253;97847;-62
2023/09/27 00:55:19;;;;;;;21.70;7.20;;;;;;;13.87;61.75;102059.59;107555;1253;97717;-62
2023/09/27 00:57:50;;;;;;;24.60;6.10;;;;;;;13.84;61.56;102057.44;107603;1253;112195;-62
2023/09/27 01:00:19;;;;;;;19.00;6.80;;;;;;;13.83;61.53;102058.81;107564;1253;108918;-64
2023/09/27 01:02:50;;;;;;;19.20;7.50;;;;;;;13.80;61.58;102056.32;107543;1253;106679;-62
2023/09/27 01:05:19;;;;;;;17.70;6.80;;;;;;;13.77;61.46;102058.20;107597;1254;97976;-63
2023/09/27 01:07:47;;;;;;;15.10;7.50;;;;;;;13.71;61.43;102061.02;107601;1253;97847;-62
2023/09/27 01:10:16;;;;;;;26.90;7.90;;;;;;;13.65;61.43;102058.08;107646;1253;111015;-62
2023/09/27 01:12:44;;;;;;;25.70;7.70;;;;;;;13.61;61.40;102062.17;107589;1251;109350;-61
2023/09/27 01:15:13;;;;;;;23.40;7.90;;;;;;;13.54;61.62;102058.27;107580;1251;108589;-60
2023/09/27 01:17:58;;;;;;;24.60;8.00;;;;;;;13.48;61.26;102061.27;107556;1255;97839;-60
2023/09/27 01:20:28;;;;;;;24.90;7.60;;;;;;;13.43;61.23;102060.77;107604;1251;97811;-61
2023/09/27 01:22:58;;;;;;;41.40;8.10;;;;;;;13.36;61.17;102059.70;107623;1251;112182;-61
2023/09/27 01:25:29;;;;;;;23.80;7.90;;;;;;;13.33;61.13;102061.88;107621;1253;110427;-61
2023/09/27 01:27:59;;;;;;;28.80;8.20;;;;;;;13.30;61.08;102060.52;107610;1251;108074;-62
2023/09/27 01:30:34;;;;;;;23.80;7.30;;;;;;;13.24;61.42;102060.62;107567;1251;97837;-62
2023/09/27 01:33:09;;;;;;;18.60;8.50;;;;;;;13.20;61.58;102060.92;107613;1254;97999;-62
2023/09/27 01:35:42;;;;;;;23.00;7.50;;;;;;;13.17;61.32;102060.61;107670;1254;112294;-61
2023/09/27 01:38:12;;;;;;;30.00;8.40;;;;;;;13.13;61.40;102063.79;107589;1254;110300;-62
2023/09/27 01:40:45;;;;;;;17.80;8.10;;;;;;;13.09;61.57;102056.70;107595;1253;108112;-62
2023/09/27 01:43:13;;;;;;;24.80;8.50;;;;;;;13.07;61.68;102064.13;107576;1254;97867;-62
2023/09/27 01:45:42;;;;;;;39.60;7.40;;;;;;;13.04;61.76;102063.10;107612;1254;97754;-61
2023/09/27 01:48:12;;;;;;;30.00;8.40;;;;;;;13.00;61.96;102062.81;107528;1256;111716;-62
2023/09/27 01:50:41;;;;;;;18.10;7.50;;;;;;;12.99;62.23;102065.29;107482;1252;109102;-62
2023/09/27 01:53:09;;;;;;;19.00;7.50;;;;;;;13.00;62.35;102069.71;107591;1256;107292;-61
2023/09/27 01:55:40;;;;;;;24.20;7.50;;;;;;;13.00;62.66;102070.23;107543;1253;97823;-61
2023/09/27 01:58:08;;;;;;;27.30;7.30;;;;;;;12.99;62.80;102067.05;107547;1254;97838;-62
2023/09/27 02:00:37;;;;;;;22.20;8.10;;;;;;;12.98;62.92;102066.42;107596;1251;112221;-61
2023/09/27 02:03:05;;;;;;;22.10;7.30;;;;;;;13.01;63.39;102072.31;107549;1254;108661;-62
2023/09/27 02:05:33;;;;;;;21.70;7.20;;;;;;;13.04;63.47;102073.18;107603;1253;107305;-61
2023/09/27 02:08:02;;;;;;;20.40;7.20;;;;;;;13.07;63.80;102076.20;107570;1254;97841;-61
2023/09/27 02:10:31;;;;;;;22.50;7.40;;;;;;;13.04;63.65;102077.82;107565;1251;97850;-62
2023/09/27 02:13:00;;;;;;;16.20;7.20;;;;;;;13.05;63.65;102078.11;107615;1253;111896;-62
2023/09/27 02:15:28;;;;;;;32.70;7.90;;;;;;;13.04;63.62;102076.98;107611;1253;109267;-62
2023/09/27 02:17:56;;;;;;;25.70;6.60;;;;;;;13.04;63.69;102081.31;107545;1254;107677;-61
2023/09/27 02:20:24;;;;;;;27.00;8.10;;;;;;;13.06;64.05;102078.60;107514;1253;97922;-60
2023/09/27 02:22:54;;;;;;;21.80;7.80;;;;;;;13.06;64.11;102078.42;107641;1254;98370;-60
2023/09/27 02:25:23;;;;;;;26.90;7.90;;;;;;;13.04;64.07;102082.17;107591;1252;111470;-61
2023/09/27 02:27:51;;;;;;;21.90;6.30;;;;;;;13.01;64.13;102083.30;107592;1254;109724;-62
2023/09/27 02:30:19;;;;;;;15.60;6.40;;;;;;;12.99;64.56;102087.07;107556;1253;107320;-60
2023/09/27 02:32:48;;;;;;;22.60;7.70;;;;;;;12.97;64.66;102086.30;107594;1253;97801;-62
2023/09/27 02:35:19;;;;;;;30.20;7.50;;;;;;;12.97;64.33;102090.48;107599;1253;97736;-62
2023/09/27 02:37:48;;;;;;;28.70;7.80;;;;;;;12.95;64.13;102088.59;107686;1251;110904;-61
2023/09/27 02:40:17;;;;;;;24.50;8.30;;;;;;;12.93;63.89;102091.70;107649;1253;109387;-62
2023/09/27 02:42:49;;;;;;;23.40;7.70;;;;;;;12.86;64.02;102089.13;107580;1251;107575;-62
2023/09/27 02:45:17;;;;;;;22.90;7.80;;;;;;;12.78;64.08;102087.02;107542;1255;97850;-62
2023/09/27 02:47:47;;;;;;;17.70;7.00;;;;;;;12.71;64.07;102086.65;107597;1251;97816;-61
2023/09/27 02:50:35;;;;;;;30.80;7.50;;;;;;;12.64;64.20;102086.83;107595;1254;111307;-60
2023/09/27 02:53:04;;;;;;;17.60;8.90;;;;;;;12.57;64.44;102092.98;107602;1253;109895;-61
2023/09/27 02:55:33;;;;;;;20.80;7.60;;;;;;;12.50;64.39;102088.48;107531;1254;108164;-61
2023/09/27 02:58:02;;;;;;;29.70;8.60;;;;;;;12.46;64.28;102092.38;107582;1251;97940;-60
2023/09/27 03:00:30;;;;;;;24.90;7.30;;;;;;;12.43;64.29;102089.13;107591;1256;97832;-61
2023/09/27 03:03:00;;;;;;;30.60;8.20;;;;;;;12.42;64.45;102089.23;107616;1253;112100;-64
2023/09/27 03:05:30;;;;;;;20.60;7.50;;;;;;;12.37;64.21;102088.73;107486;1257;109261;-61
2023/09/27 03:07:58;;;;;;;20.10;7.90;;;;;;;12.32;64.44;102089.08;107619;1254;108299;-62
2023/09/27 03:10:27;;;;;;;26.80;8.20;;;;;;;12.28;64.29;102087.77;107543;1254;97948;-61
2023/09/27 03:12:55;;;;;;;24.80;9.50;;;;;;;12.25;64.24;102085.08;107523;1254;97740;-61
2023/09/27 03:15:25;;;;;;;23.80;8.80;;;;;;;12.22;64.32;102086.21;107565;1254;113049;-61
2023/09/27 03:17:53;;;;;;;28.30;7.60;;;;;;;12.19;64.73;102086.10;107584;1256;109062;-61
2023/09/27 03:20:22;;;;;;;24.60;8.00;;;;;;;12.16;65.00;102087.38;107492;1256;108331;-62
2023/09/27 03:22:51;;;;;;;26.80;9.00;;;;;;;12.17;65.06;102088.77;107580;1254;97850;-62
2023/09/27 03:25:19;;;;;;;24.40;8.00;;;;;;;12.18;65.07;102087.91;107573;1253;98494;-62
2023/09/27 03:27:48;;;;;;;31.90;7.60;;;;;;;12.22;64.97;102084.97;107576;1256;110942;-61
2023/09/27 03:30:17;;;;;;;17.80;7.50;;;;;;;12.20;65.30;102086.52;107630;1254;109600;-61
2023/09/27 03:32:46;;;;;;;21.70;7.50;;;;;;;12.20;65.60;102086.52;107584;1254;107805;-61
2023/09/27 03:35:15;;;;;;;31.20;7.60;;;;;;;12.21;65.70;102092.39;107541;1254;97678;-61
2023/09/27 03:37:47;;;;;;;33.50;8.10;;;;;;;12.24;65.58;102090.79;107547;1254;97840;-60
2023/09/27 03:40:15;;;;;;;20.40;7.20;;;;;;;12.26;66.03;102090.06;107574;1253;111217;-61
2023/09/27 03:42:46;;;;;;;28.20;7.20;;;;;;;12.28;65.93;102090.11;107600;1254;108838;-61
2023/09/27 03:45:15;;;;;;;33.70;8.00;;;;;;;12.31;65.53;102092.76;107598;1254;106808;-60
2023/09/27 03:47:47;;;;;;;23.70;8.10;;;;;;;12.33;65.67;102092.21;107540;1253;97724;-61
2023/09/27 03:50:20;;;;;;;35.80;8.40;;;;;;;12.35;65.54;102093.52;107576;1254;97822;-61
2023/09/27 03:52:49;;;;;;;31.90;10.40;;;;;;;12.35;65.76;102092.11;107598;1255;111215;-61
2023/09/27 03:55:17;;;;;;;27.50;7.90;;;;;;;12.34;66.32;102098.27;107478;1256;109093;-62
2023/09/27 03:57:46;;;;;;;21.50;7.90;;;;;;;12.35;66.14;102096.97;107483;1253;107926;-62
2023/09/27 04:00:16;;;;;;;29.50;7.20;;;;;;;12.39;65.96;102096.64;107511;1254;97902;-62
2023/09/27 04:02:47;;;;;;;25.60;9.20;;;;;;;12.46;65.86;102096.82;107615;1253;97865;-61
2023/09/27 04:05:18;;;;;;;22.00;7.70;;;;;;;12.51;65.73;102096.65;107614;1253;110643;-61
2023/09/27 04:07:47;;;;;;;35.80;9.60;;;;;;;12.56;65.54;102094.98;107596;1253;109670;-61
2023/09/27 04:10:16;;;;;;;44.90;9.30;;;;;;;12.57;65.13;102095.66;107515;1254;107778;-61
2023/09/27 04:12:45;;;;;;;37.00;8.90;;;;;;;12.56;64.81;102093.91;107553;1253;97839;-61
2023/09/27 04:15:14;;;;;;;36.70;10.20;;;;;;;12.56;64.75;102096.61;107592;1251;98366;-62
2023/09/27 04:17:42;;;;;;;24.40;9.00;;;;;;;12.55;64.58;102099.40;107551;1254;111897;-62
2023/09/27 04:20:18;;;;;;;20.70;8.40;;;;;;;12.51;64.62;102101.84;107562;1255;109679;-61
2023/09/27 04:22:49;;;;;;;28.40;7.50;;;;;;;12.47;64.45;102103.05;107529;1251;108381;-62
2023/09/27 04:25:18;;;;;;;25.90;8.30;;;;;;;12.45;64.69;102104.32;107548;1253;97948;-62
2023/09/27 04:27:49;;;;;;;20.30;8.30;;;;;;;12.43;64.73;102105.02;107623;1253;97716;-61
2023/09/27 04:30:20;;;;;;;32.70;8.40;;;;;;;12.41;64.88;102104.77;107581;1254;111351;-62
2023/09/27 04:32:50;;;;;;;25.50;8.80;;;;;;;12.40;64.74;102105.23;107605;1256;108771;-62
2023/09/27 04:35:20;;;;;;;27.20;8.60;;;;;;;12.37;64.73;102101.29;107548;1253;106655;-61
2023/09/27 04:37:49;;;;;;;26.00;8.90;;;;;;;12.36;64.75;102106.02;107586;1254;97731;-62
2023/09/27 04:40:17;;;;;;;24.00;7.80;;;;;;;12.36;64.77;102111.64;107607;1253;98444;-61
2023/09/27 04:42:46;;;;;;;25.60;8.50;;;;;;;12.33;64.95;102113.67;107638;1254;112685;-62
2023/09/27 04:45:15;;;;;;;43.80;17.30;;;;;;;12.31;64.96;102114.02;107636;1251;108912;-61
2023/09/27 04:47:44;;;;;;;22.20;8.80;;;;;;;12.30;65.00;102113.20;107552;1256;107830;-62
2023/09/27 04:50:14;;;;;;;28.30;8.80;;;;;;;12.32;65.05;102113.59;107480;1254;97707;-61
2023/09/27 04:52:44;;;;;;;30.80;9.20;;;;;;;12.35;65.15;102117.61;107500;1256;97733;-61
2023/09/27 04:55:13;;;;;;;27.40;8.90;;;;;;;12.40;65.48;102119.46;107549;1253;112139;-62
2023/09/27 04:57:41;;;;;;;52.60;9.10;;;;;;;12.45;65.66;102124.66;107571;1254;109460;-62
2023/09/27 05:00:18;;;;;;;30.00;8.60;;;;;;;12.50;65.76;102121.76;107571;1254;108629;-62
2023/09/27 05:02:48;;;;;;;45.30;9.50;;;;;;;12.57;65.76;102121.20;107514;1253;97832;-62
2023/09/27 05:05:17;;;;;;;30.20;9.10;;;;;;;12.64;65.98;102121.56;107618;1254;98352;-61
2023/09/27 05:07:47;;;;;;;34.10;10.00;;;;;;;12.72;65.95;102124.78;107581;1252;111106;-62
2023/09/27 05:10:16;;;;;;;37.70;9.40;;;;;;;12.82;66.06;102125.28;107499;1254;108209;-61
2023/09/27 05:12:44;;;;;;;28.90;9.80;;;;;;;12.93;66.00;102126.62;107541;1254;107640;-61
2023/09/27 05:15:12;;;;;;;30.00;9.60;;;;;;;13.03;65.69;102122.08;107522;1254;97838;-62
2023/09/27 05:17:41;;;;;;;32.20;9.40;;;;;;;13.10;65.28;102122.38;107572;1253;98445;-63
2023/09/27 05:20:13;;;;;;;33.50;10.30;;;;;;;13.19;64.91;102121.34;107494;1254;112035;-62
2023/09/27 05:22:42;;;;;;;35.60;11.10;;;;;;;13.28;64.48;102120.10;107540;1254;109729;-61
2023/09/27 05:25:12;;;;;;;29.20;10.00;;;;;;;13.36;64.09;102118.94;107445;1256;107753;-61
2023/09/27 05:27:40;;;;;;;40.60;10.30;;;;;;;13.42;63.49;102119.92;107463;1253;97957;-62
2023/09/27 05:30:11;;;;;;;30.40;10.70;;;;;;;13.46;63.01;102119.64;107540;1253;97752;-62
2023/09/27 05:32:42;;;;;;;48.80;10.40;;;;;;;13.47;62.86;102119.17;107583;1254;111408;-62
2023/09/27 05:35:11;;;;;;;22.70;9.90;;;;;;;13.51;62.49;102127.52;107557;1253;109866;-61
2023/09/27 05:37:42;;;;;;;35.40;9.40;;;;;;;13.52;61.96;102131.61;107478;1255;108279;-62
2023/09/27 05:40:11;;;;;;;51.40;11.40;;;;;;;13.50;61.77;102132.30;107552;1254;97820;-62
2023/09/27 05:42:39;;;;;;;35.00;10.80;;;;;;;13.47;61.60;102130.39;107534;1254;97952;-61
2023/09/27 05:45:12;;;;;;;42.10;10.90;;;;;;;13.43;61.62;102128.84;107605;1252;112204;-62
2023/09/27 05:47:41;;;;;;;23.40;9.80;;;;;;;13.45;61.88;102132.31;107490;1254;109312;-62
2023/09/27 05:50:13;;;;;;;30.30;9.60;;;;;;;13.46;61.89;102131.15;107482;1253;107706;-62
2023/09/27 05:52:44;;;;;;;33.60;10.30;;;;;;;13.48;61.85;102129.00;107563;1252;97838;-62
2023/09/27 05:55:15;;;;;;;32.50;10.80;;;;;;;13.54;61.69;102133.26;107575;1255;98124;-62
2023/09/27 05:57:44;;;;;;;26.10;8.10;;;;;;;13.57;61.47;102134.63;107564;1253;112158;-62
2023/09/27 06:00:23;;;;;;;27.40;8.90;;;;;;;13.59;61.23;102131.94;107550;1251;109431;-63
2023/09/27 06:02:52;;;;;;;30.30;9.30;;;;;;;13.64;60.73;102139.33;107563;1253;108208;-63
2023/09/27 06:05:20;;;;;;;23.60;9.20;;;;;;;13.70;60.57;102137.73;107552;1256;97924;-61
2023/09/27 06:07:49;;;;;;;29.60;9.90;;;;;;;13.76;60.54;102142.10;107461;1254;97816;-62
2023/09/27 06:10:18;;;;;;;25.50;8.90;;;;;;;13.82;60.42;102137.52;107564;1254;111738;-61
2023/09/27 06:12:46;;;;;;;30.80;9.00;;;;;;;13.87;60.43;102134.02;107540;1254;109880;-61
2023/09/27 06:15:14;;;;;;;25.50;8.80;;;;;;;13.93;60.32;102139.48;107498;1254;108157;-62
2023/09/27 06:17:43;;;;;;;23.80;9.10;;;;;;;13.97;59.85;102140.23;107548;1254;97755;-62
2023/09/27 06:20:19;;;;;;;33.90;9.30;;;;;;;14.02;59.87;102140.76;107616;1254;97957;-62
2023/09/27 06:22:54;;;;;;;29.20;10.30;;;;;;;14.11;59.70;102145.09;107521;1254;112132;-62
2023/09/27 06:25:29;;;;;;;39.30;9.50;;;;;;;14.16;59.49;102141.06;107489;1254;109661;-62
2023/09/27 06:28:00;;;;;;;33.60;10.80;;;;;;;14.22;59.33;102144.57;107535;1254;108450;-62
2023/09/27 06:30:29;;;;;;;28.80;9.20;;;;;;;14.29;59.37;102146.00;107456;1253;97898;-62
2023/09/27 06:32:58;;;;;;;31.70;10.40;;;;;;;14.36;59.12;102142.89;107550;1254;97733;-61
2023/09/27 06:35:26;;;;;;;22.90;9.30;;;;;;;14.46;59.03;102135.94;107528;1254;111932;-62
2023/09/27 06:37:55;;;;;;;26.80;9.30;;;;;;;14.57;58.79;102142.77;107548;1256;109675;-62
2023/09/27 06:40:24;;;;;;;32.50;10.10;;;;;;;14.66;58.62;102139.11;107501;1254;108773;-61
2023/09/27 06:42:53;;;;;;;32.10;9.50;;;;;;;14.75;58.26;102142.23;107490;1254;97864;-61
2023/09/27 06:45:22;;;;;;;22.30;8.00;;;;;;;14.84;57.95;102141.77;107615;1254;98358;-62
2023/09/27 06:47:50;;;;;;;30.30;9.00;;;;;;;14.95;57.38;102144.45;107570;1251;111480;-62
2023/09/27 06:50:20;;;;;;;24.50;9.30;;;;;;;15.05;56.88;102138.94;107503;1254;109045;-62
2023/09/27 06:52:49;;;;;;;31.20;8.90;;;;;;;15.15;56.38;102137.34;107546;1254;107653;-62
2023/09/27 06:55:22;;;;;;;34.20;9.50;;;;;;;15.26;56.31;102136.58;107528;1253;97823;-63
2023/09/27 06:57:52;;;;;;;38.40;8.90;;;;;;;15.36;56.14;102134.84;107584;1253;98360;-61
2023/09/27 07:00:24;;;;;;;35.00;8.70;;;;;;;15.45;55.82;102138.85;107594;1254;111407;-61
2023/09/27 07:02:53;;;;;;;28.40;8.60;;;;;;;15.57;55.73;102141.87;107523;1254;109882;-62
2023/09/27 07:05:22;;;;;;;33.30;9.00;;;;;;;15.67;54.97;102145.98;107609;1254;108513;-62
2023/09/27 07:07:53;;;;;;;31.50;8.40;;;;;;;15.76;54.53;102144.48;107538;1254;97986;-62
2023/09/27 07:10:24;;;;;;;22.60;9.30;;;;;;;15.89;54.40;102144.84;107544;1254;98367;-62
2023/09/27 07:12:52;;;;;;;35.80;8.30;;;;;;;16.00;54.36;102144.79;107615;1253;111994;-62
2023/09/27 07:15:20;;;;;;;27.10;8.10;;;;;;;16.12;54.21;102147.30;107520;1254;111207;-63
2023/09/27 07:17:49;;;;;;;33.30;8.00;;;;;;;16.23;54.08;102147.08;107526;1254;107663;-62
2023/09/27 07:20:27;;;;;;;29.60;7.90;;;;;;;16.35;53.95;102144.18;107532;1254;97873;-62
2023/09/27 07:22:57;;;;;;;29.30;8.40;;;;;;;16.50;53.61;102145.90;107616;1254;98390;-61
2023/09/27 07:25:28;;;;;;;28.00;8.60;;;;;;;16.62;53.18;102146.55;107507;1253;111315;-62
2023/09/27 07:27:57;;;;;;;33.70;8.70;;;;;;;16.76;52.93;102146.38;107550;1254;108919;-63
2023/09/27 07:30:25;;;;;;;29.80;8.40;;;;;;;16.90;52.87;102145.45;107494;1256;108862;-64
2023/09/27 07:32:55;;;;;;;23.60;9.90;;;;;;;17.03;52.31;102145.87;107514;1254;97804;-60
2023/09/27 07:35:27;;;;;;;24.70;8.20;;;;;;;17.19;51.75;102148.56;107579;1254;98366;-62
2023/09/27 07:37:56;;;;;;;44.20;9.20;;;;;;;17.32;51.41;102142.56;107548;1254;113017;-61
2023/09/27 07:40:24;;;;;;;44.50;9.20;;;;;;;17.46;51.03;102139.98;107577;1254;109687;-61
2023/09/27 07:42:53;;;;;;;28.30;8.10;;;;;;;17.59;50.23;102141.25;107556;1255;107186;-61
2023/09/27 07:45:22;;;;;;;31.60;8.60;;;;;;;17.76;50.20;102140.02;107558;1252;97841;-61
2023/09/27 07:47:53;;;;;;;33.00;7.90;;;;;;;17.90;50.09;102140.42;107490;1254;98365;-63
2023/09/27 07:50:27;;;;;;;30.20;8.50;;;;;;;18.05;50.33;102138.46;107401;1253;111744;-61
2023/09/27 07:53:03;;;;;;;33.10;8.50;;;;;;;18.21;50.26;102140.21;107572;1254;109840;-62
2023/09/27 07:55:36;;;;;;;36.90;8.80;;;;;;;18.38;49.12;102141.74;107520;1254;108590;-62
2023/09/27 07:58:04;;;;;;;43.50;9.20;;;;;;;18.57;48.18;102138.94;107548;1256;97903;-62
2023/09/27 08:00:33;;;;;;;21.20;8.80;;;;;;;18.73;47.80;102140.40;107524;1254;97976;-62
2023/09/27 08:03:02;;;;;;;23.20;8.40;;;;;;;18.90;47.13;102136.74;107502;1254;111966;-62
2023/09/27 08:05:31;;;;;;;28.80;8.50;;;;;;;19.08;46.88;102141.92;107534;1254;109944;-63
2023/09/27 08:07:59;;;;;;;27.40;7.50;;;;;;;19.25;46.78;102135.48;107496;1254;108150;-61
2023/09/27 08:10:29;;;;;;;22.00;8.30;;;;;;;19.43;46.85;102140.34;107552;1254;97819;-62
2023/09/27 08:12:57;;;;;;;26.20;7.80;;;;;;;19.60;46.18;102137.13;107568;1255;97857;-62
2023/09/27 08:15:26;;;;;;;21.60;7.70;;;;;;;19.74;45.51;102138.66;107542;1254;110599;-62
2023/09/27 08:17:57;;;;;;;24.40;8.60;;;;;;;19.90;45.52;102130.31;107584;1254;110114;-61
2023/09/27 08:20:25;;;;;;;29.90;8.00;;;;;;;20.11;45.18;102136.09;107547;1254;107333;-62
2023/09/27 08:22:54;;;;;;;23.00;8.50;;;;;;;20.29;44.81;102128.48;107441;1254;97823;-62
2023/09/27 08:25:23;;;;;;;22.40;7.80;;;;;;;20.49;43.90;102129.02;107602;1254;97825;-61
2023/09/27 08:27:51;;;;;;;30.30;8.30;;;;;;;20.70;43.78;102120.98;107601;1254;112350;-62
2023/09/27 08:30:23;;;;;;;25.40;8.40;;;;;;;20.92;42.68;102120.19;107593;1254;109638;-63
2023/09/27 08:32:54;;;;;;;28.50;8.10;;;;;;;21.13;42.73;102116.71;107472;1254;107127;-63
2023/09/27 08:35:23;;;;;;;29.10;8.80;;;;;;;21.36;41.88;102115.27;107612;1254;97714;-62
2023/09/27 08:37:51;;;;;;;31.40;9.00;;;;;;;21.60;42.32;102117.80;107613;1253;99994;-62
2023/09/27 08:40:21;;;;;;;25.70;8.70;;;;;;;21.85;41.46;102116.02;107577;1254;111087;-61
2023/09/27 08:42:56;;;;;;;32.60;9.10;;;;;;;22.11;41.08;102111.36;107541;1254;109695;-63
2023/09/27 08:45:26;;;;;;;36.80;9.00;;;;;;;22.41;41.05;102110.81;107566;1254;107613;-62
2023/09/27 08:47:54;;;;;;;33.90;7.90;;;;;;;22.70;39.58;102105.90;107517;1254;97841;-62
2023/09/27 08:50:26;;;;;;;36.10;7.60;;;;;;;22.95;39.28;102104.79;107560;1254;98464;-62
2023/09/27 08:52:54;;;;;;;26.10;7.90;;;;;;;23.27;39.65;102103.01;107612;1256;110922;-62
2023/09/27 08:55:22;;;;;;;20.50;7.70;;;;;;;23.57;39.11;102096.98;107595;1251;109647;-62
2023/09/27 08:57:51;;;;;;;23.30;7.40;;;;;;;23.86;38.54;102094.48;107558;1254;108805;-62
2023/09/27 09:00:23;;;;;;;29.60;8.20;;;;;;;24.16;37.29;102096.08;107477;1254;98110;-61
2023/09/27 09:02:57;;;;;;;23.60;8.80;;;;;;;24.46;36.35;102093.50;107550;1254;97858;-62
2023/09/27 09:05:29;;;;;;;26.80;7.40;;;;;;;24.78;35.03;102088.61;107536;1254;111063;-62
2023/09/27 09:08:00;;;;;;;27.90;7.40;;;;;;;25.05;35.58;102080.67;107526;1254;110041;-62
2023/09/27 09:10:28;;;;;;;37.10;7.60;;;;;;;25.50;35.77;102081.39;107531;1254;108510;-62
2023/09/27 09:13:00;;;;;;;19.40;7.50;;;;;;;26.07;34.95;102080.77;107502;1254;97917;-62
2023/09/27 09:15:35;;;;;;;30.90;7.60;;;;;;;26.78;33.93;102081.47;107612;1251;97830;-62
2023/09/27 09:18:06;;;;;;;17.30;7.10;;;;;;;27.63;33.29;102081.05;107582;1255;111268;-62
2023/09/27 09:20:51;;;;;;;29.60;6.90;;;;;;;28.39;32.19;102074.36;107615;1254;108909;-62
2023/09/27 09:23:30;;;;;;;28.70;7.10;;;;;;;29.12;30.48;102074.54;107581;1254;107548;-63
2023/09/27 09:26:09;;;;;;;17.70;6.80;;;;;;;29.74;30.54;102066.58;107539;1254;97803;-61
2023/09/27 09:29:00;;;;;;;26.60;6.90;;;;;;;30.49;30.47;102061.19;107542;1254;97829;-61
2023/09/27 09:31:33;;;;;;;26.70;6.10;;;;;;;31.29;30.16;102061.77;107630;1254;111386;-61
2023/09/27 09:34:05;;;;;;;20.40;6.40;;;;;;;31.88;27.19;102059.92;107563;1254;109304;-62
2023/09/27 09:36:36;;;;;;;22.70;6.40;;;;;;;32.35;26.38;102052.54;107564;1254;107154;-62
2023/09/27 09:39:14;;;;;;;17.00;5.30;;;;;;;32.86;26.53;102049.14;107459;1256;97860;-62
2023/09/27 09:41:45;;;;;;;25.40;5.70;;;;;;;33.36;24.85;102049.73;107517;1252;97736;-61
2023/09/27 09:44:19;;;;;;;18.80;5.50;;;;;;;33.97;25.94;102040.20;107515;1253;111314;-62
2023/09/27 09:46:49;;;;;;;21.40;5.30;;;;;;;34.45;23.37;102035.41;107588;1254;108711;-62
2023/09/27 09:49:18;;;;;;;20.40;5.00;;;;;;;34.91;23.62;102032.98;107505;1254;107046;-62
2023/09/27 09:51:48;;;;;;;11.80;4.80;;;;;;;35.43;22.44;102028.45;107638;1255;97857;-63
2023/09/27 09:54:35;;;;;;;17.00;4.80;;;;;;;35.70;22.54;102022.43;107523;1256;97735;-63
2023/09/27 09:57:05;;;;;;;21.30;5.60;;;;;;;36.19;22.47;102022.27;107596;1257;112052;-63
2023/09/27 10:00:18;;;;;;;14.60;4.70;;;;;;;36.74;21.87;102020.95;107594;1255;109771;-63
2023/09/27 10:02:55;;;;;;;9.90;4.00;;;;;;;37.17;20.93;102011.50;107634;1256;108313;-62
2023/09/27 10:05:28;;;;;;;11.10;4.70;;;;;;;37.60;19.95;102006.92;107616;1255;97815;-62
2023/09/27 10:07:57;;;;;;;15.40;4.50;;;;;;;38.01;20.73;102003.11;107325;1254;394496;-63
2023/09/27 10:10:27;;;;;;;23.10;5.10;;;;;;;38.53;20.20;101997.88;107623;1254;111834;-62
2023/09/27 10:12:57;;;;;;;20.70;5.00;;;;;;;39.01;19.79;101995.54;107524;1254;108855;-63
2023/09/27 10:15:27;;;;;;;24.80;5.30;;;;;;;39.44;19.07;101993.40;107545;1256;108463;-62
2023/09/27 10:18:22;;;;;;;9.50;4.00;;;;;;;39.66;17.66;101989.64;107602;1254;97923;-62
2023/09/27 10:21:03;;;;;;;12.90;4.20;;;;;;;39.96;17.74;101983.25;107515;1254;97962;-62
2023/09/27 10:23:46;;;;;;;10.90;4.30;;;;;;;40.27;17.07;101975.30;107554;1254;111691;-63
2023/09/27 10:26:27;;;;;;;14.00;4.60;;;;;;;40.28;16.79;101976.52;107551;1256;110083;-63
2023/09/27 10:29:13;;;;;;;13.40;4.20;;;;;;;40.41;17.29;101976.75;107576;1256;108499;-61
2023/09/27 10:31:57;;;;;;;13.50;4.60;;;;;;;40.71;16.79;101975.83;107520;1254;98462;-63
2023/09/27 10:34:29;;;;;;;13.00;4.20;;;;;;;40.83;16.77;101972.54;107576;1257;98539;-63
2023/09/27 10:36:59;;;;;;;10.00;4.30;;;;;;;41.17;16.09;101960.48;107562;1255;112010;-62
2023/09/27 10:40:19;;;;;;;15.00;4.10;;;;;;;41.48;15.84;101959.59;107612;1256;109301;-62
2023/09/27 10:42:48;;;;;;;19.70;5.30;;;;;;;41.50;15.32;101957.42;107528;1254;108890;-63
2023/09/27 10:45:17;;;;;;;17.90;4.90;;;;;;;41.48;15.44;101952.48;107540;1254;97862;-64
2023/09/27 10:47:49;;;;;;;13.70;5.20;;;;;;;41.74;15.30;101949.37;107605;1254;97925;-64
2023/09/27 10:50:29;;;;;;;14.30;4.70;;;;;;;41.81;14.98;101944.90;107403;1257;112024;-63
2023/09/27 10:52:59;;;;;;;11.30;4.80;;;;;;;41.87;14.56;101946.33;107575;1254;109755;-62
2023/09/27 10:55:37;;;;;;;24.20;5.80;;;;;;;41.91;14.61;101942.95;107548;1254;108891;-62
2023/09/27 10:58:06;;;;;;;16.80;6.00;;;;;;;41.96;14.18;101938.09;107536;1251;97858;-62
2023/09/27 11:00:48;;;;;;;14.90;6.00;;;;;;;41.84;13.40;101935.46;107455;1253;98531;-62
2023/09/27 11:03:18;;;;;;;17.50;5.90;;;;;;;41.33;14.55;101937.80;107549;1255;111841;-63
2023/09/27 11:05:47;;;;;;;23.10;6.50;;;;;;;41.01;14.52;101941.35;107578;1255;110962;-63
2023/09/27 11:08:25;;;;;;;22.10;5.80;;;;;;;40.72;14.61;101941.29;107583;1251;108581;-63
2023/09/27 11:10:56;;;;;;;14.60;5.80;;;;;;;40.58;14.78;101937.42;107525;1255;97727;-63
2023/09/27 11:13:25;;;;;;;9.60;5.10;;;;;;;40.25;14.95;101933.61;107549;1255;97728;-63
2023/09/27 11:15:54;;;;;;;15.10;6.60;;;;;;;40.08;15.47;101932.11;107550;1254;111827;-62
2023/09/27 11:18:22;;;;;;;15.00;5.40;;;;;;;39.83;15.90;101935.70;107537;1254;109689;-63
2023/09/27 11:20:50;;;;;;;17.40;5.40;;;;;;;39.80;15.75;101934.52;107525;1256;108182;-63